sensor_id;sensor_type;location;lat;lon;timestamp;P1;durP1;ratioP1;P2;durP2;ratioP2
42704;SDS011;28342;42.594;23.414;2022-12-07T00:01:17;43.10;;;23.10;;
42704;SDS011;28342;42.594;23.414;2022-12-07T00:03:45;46.72;;;21.25;;
42704;SDS011;28342;42.594;23.414;2022-12-07T00:06:12;37.22;;;18.40;;
42704;SDS011;28342;42.594;23.414;2022-12-07T00:08:39;33.35;;;17.88;;
42704;SDS011;28342;42.594;23.414;2022-12-07T00:11:06;35.00;;;18.02;;
42704;SDS011;28342;42.594;23.414;2022-12-07T00:13:34;31.05;;;16.90;;
42704;SDS011;28342;42.594;23.414;2022-12-07T00:16:19;32.60;;;17.55;;
42704;SDS011;28342;42.594;23.414;2022-12-07T00:18:46;25.27;;;15.80;;
42704;SDS011;28342;42.594;23.414;2022-12-07T00:21:16;27.10;;;14.35;;
42704;SDS011;28342;42.594;23.414;2022-12-07T00:23:44;27.55;;;14.77;;
42704;SDS011;28342;42.594;23.414;2022-12-07T00:26:12;30.08;;;13.23;;
42704;SDS011;28342;42.594;23.414;2022-12-07T00:28:39;24.77;;;13.45;;
42704;SDS011;28342;42.594;23.414;2022-12-07T00:31:06;25.83;;;13.65;;
42704;SDS011;28342;42.594;23.414;2022-12-07T00:33:33;23.50;;;13.05;;
42704;SDS011;28342;42.594;23.414;2022-12-07T00:36:00;25.08;;;13.93;;
42704;SDS011;28342;42.594;23.414;2022-12-07T00:38:28;28.23;;;15.10;;
42704;SDS011;28342;42.594;23.414;2022-12-07T00:40:55;27.95;;;15.10;;
42704;SDS011;28342;42.594;23.414;2022-12-07T00:43:21;33.70;;;15.85;;
42704;SDS011;28342;42.594;23.414;2022-12-07T00:45:47;24.73;;;14.30;;
42704;SDS011;28342;42.594;23.414;2022-12-07T00:48:12;25.73;;;13.75;;
42704;SDS011;28342;42.594;23.414;2022-12-07T00:50:38;24.92;;;13.27;;
42704;SDS011;28342;42.594;23.414;2022-12-07T00:53:03;36.38;;;13.93;;
42704;SDS011;28342;42.594;23.414;2022-12-07T00:55:32;22.70;;;12.88;;
42704;SDS011;28342;42.594;23.414;2022-12-07T00:57:58;26.17;;;12.77;;
42704;SDS011;28342;42.594;23.414;2022-12-07T01:00:23;27.60;;;14.00;;
42704;SDS011;28342;42.594;23.414;2022-12-07T01:02:49;25.77;;;14.15;;
42704;SDS011;28342;42.594;23.414;2022-12-07T01:05:14;27.05;;;14.23;;
42704;SDS011;28342;42.594;23.414;2022-12-07T01:07:40;33.05;;;13.82;;
42704;SDS011;28342;42.594;23.414;2022-12-07T01:10:05;25.35;;;13.35;;
42704;SDS011;28342;42.594;23.414;2022-12-07T01:12:31;22.15;;;12.40;;
42704;SDS011;28342;42.594;23.414;2022-12-07T01:14:57;23.67;;;12.20;;
42704;SDS011;28342;42.594;23.414;2022-12-07T01:17:22;31.65;;;14.75;;
42704;SDS011;28342;42.594;23.414;2022-12-07T01:19:47;33.30;;;14.70;;
42704;SDS011;28342;42.594;23.414;2022-12-07T01:22:13;31.10;;;15.40;;
42704;SDS011;28342;42.594;23.414;2022-12-07T01:24:38;26.85;;;15.15;;
42704;SDS011;28342;42.594;23.414;2022-12-07T01:27:04;31.23;;;15.55;;
42704;SDS011;28342;42.594;23.414;2022-12-07T01:29:29;25.75;;;13.25;;
42704;SDS011;28342;42.594;23.414;2022-12-07T01:31:55;25.52;;;12.90;;
42704;SDS011;28342;42.594;23.414;2022-12-07T01:34:20;25.35;;;13.88;;
42704;SDS011;28342;42.594;23.414;2022-12-07T01:36:45;27.65;;;17.30;;
42704;SDS011;28342;42.594;23.414;2022-12-07T01:39:11;23.77;;;14.40;;
42704;SDS011;28342;42.594;23.414;2022-12-07T01:41:38;29.17;;;14.02;;
42704;SDS011;28342;42.594;23.414;2022-12-07T01:44:15;28.83;;;12.38;;
42704;SDS011;28342;42.594;23.414;2022-12-07T01:46:53;20.23;;;11.82;;
42704;SDS011;28342;42.594;23.414;2022-12-07T01:54:43;23.45;;;11.65;;
42704;SDS011;28342;42.594;23.414;2022-12-07T01:57:11;20.95;;;11.48;;
42704;SDS011;28342;42.594;23.414;2022-12-07T01:59:39;23.60;;;12.52;;
42704;SDS011;28342;42.594;23.414;2022-12-07T02:02:10;20.58;;;11.13;;
42704;SDS011;28342;42.594;23.414;2022-12-07T02:04:47;20.73;;;12.48;;
42704;SDS011;28342;42.594;23.414;2022-12-07T02:07:13;27.73;;;15.05;;
42704;SDS011;28342;42.594;23.414;2022-12-07T02:09:40;29.10;;;15.52;;
42704;SDS011;28342;42.594;23.414;2022-12-07T02:12:05;26.25;;;14.23;;
42704;SDS011;28342;42.594;23.414;2022-12-07T02:14:31;26.35;;;14.88;;
42704;SDS011;28342;42.594;23.414;2022-12-07T02:17:01;25.42;;;14.55;;
42704;SDS011;28342;42.594;23.414;2022-12-07T02:22:40;23.50;;;13.57;;
42704;SDS011;28342;42.594;23.414;2022-12-07T02:28:21;19.33;;;12.10;;
42704;SDS011;28342;42.594;23.414;2022-12-07T02:30:54;21.25;;;13.35;;
42704;SDS011;28342;42.594;23.414;2022-12-07T02:33:28;19.33;;;12.18;;
42704;SDS011;28342;42.594;23.414;2022-12-07T02:38:51;22.63;;;12.15;;
42704;SDS011;28342;42.594;23.414;2022-12-07T02:43:59;23.77;;;11.40;;
42704;SDS011;28342;42.594;23.414;2022-12-07T02:46:28;23.13;;;14.55;;
42704;SDS011;28342;42.594;23.414;2022-12-07T02:48:57;29.70;;;20.67;;
42704;SDS011;28342;42.594;23.414;2022-12-07T02:51:29;23.67;;;13.05;;
42704;SDS011;28342;42.594;23.414;2022-12-07T02:53:59;21.63;;;12.95;;
42704;SDS011;28342;42.594;23.414;2022-12-07T03:10:14;25.45;;;15.20;;
42704;SDS011;28342;42.594;23.414;2022-12-07T03:15:33;26.67;;;15.13;;
42704;SDS011;28342;42.594;23.414;2022-12-07T03:18:21;39.08;;;14.57;;
42704;SDS011;28342;42.594;23.414;2022-12-07T03:20:49;23.27;;;13.55;;
42704;SDS011;28342;42.594;23.414;2022-12-07T03:23:18;29.48;;;14.70;;
42704;SDS011;28342;42.594;23.414;2022-12-07T03:25:47;26.50;;;14.13;;
42704;SDS011;28342;42.594;23.414;2022-12-07T03:28:17;28.52;;;14.77;;
42704;SDS011;28342;42.594;23.414;2022-12-07T03:35:58;33.28;;;17.95;;
42704;SDS011;28342;42.594;23.414;2022-12-07T03:38:40;36.10;;;16.27;;
42704;SDS011;28342;42.594;23.414;2022-12-07T03:41:14;37.00;;;17.33;;
42704;SDS011;28342;42.594;23.414;2022-12-07T03:43:44;47.03;;;20.75;;
42704;SDS011;28342;42.594;23.414;2022-12-07T03:46:21;36.67;;;19.77;;
42704;SDS011;28342;42.594;23.414;2022-12-07T03:48:59;35.75;;;18.30;;
42704;SDS011;28342;42.594;23.414;2022-12-07T03:51:41;32.70;;;17.48;;
42704;SDS011;28342;42.594;23.414;2022-12-07T03:54:17;35.13;;;16.92;;
42704;SDS011;28342;42.594;23.414;2022-12-07T03:56:48;34.15;;;18.08;;
42704;SDS011;28342;42.594;23.414;2022-12-07T03:59:15;34.85;;;16.95;;
42704;SDS011;28342;42.594;23.414;2022-12-07T04:01:45;35.20;;;17.02;;
42704;SDS011;28342;42.594;23.414;2022-12-07T04:04:17;34.40;;;17.85;;
42704;SDS011;28342;42.594;23.414;2022-12-07T04:06:42;27.63;;;16.05;;
42704;SDS011;28342;42.594;23.414;2022-12-07T04:09:08;33.28;;;17.48;;
42704;SDS011;28342;42.594;23.414;2022-12-07T04:11:33;34.55;;;17.83;;
42704;SDS011;28342;42.594;23.414;2022-12-07T04:13:59;30.30;;;17.67;;
42704;SDS011;28342;42.594;23.414;2022-12-07T04:16:42;35.08;;;19.23;;
42704;SDS011;28342;42.594;23.414;2022-12-07T04:19:08;28.63;;;14.48;;
42704;SDS011;28342;42.594;23.414;2022-12-07T04:21:33;34.20;;;16.40;;
42704;SDS011;28342;42.594;23.414;2022-12-07T04:23:59;38.70;;;17.67;;
42704;SDS011;28342;42.594;23.414;2022-12-07T04:26:24;31.10;;;16.08;;
42704;SDS011;28342;42.594;23.414;2022-12-07T04:28:50;30.33;;;16.70;;
42704;SDS011;28342;42.594;23.414;2022-12-07T04:31:15;32.00;;;18.77;;
42704;SDS011;28342;42.594;23.414;2022-12-07T04:33:40;32.22;;;17.40;;
42704;SDS011;28342;42.594;23.414;2022-12-07T04:36:06;30.77;;;15.82;;
42704;SDS011;28342;42.594;23.414;2022-12-07T04:38:32;30.52;;;16.00;;
42704;SDS011;28342;42.594;23.414;2022-12-07T04:40:57;30.08;;;16.15;;
42704;SDS011;28342;42.594;23.414;2022-12-07T04:43:23;26.25;;;15.40;;
42704;SDS011;28342;42.594;23.414;2022-12-07T04:45:48;34.70;;;16.92;;
42704;SDS011;28342;42.594;23.414;2022-12-07T04:48:15;31.25;;;16.50;;
42704;SDS011;28342;42.594;23.414;2022-12-07T04:50:41;31.02;;;16.00;;
42704;SDS011;28342;42.594;23.414;2022-12-07T04:53:06;31.30;;;16.73;;
42704;SDS011;28342;42.594;23.414;2022-12-07T04:55:31;36.75;;;17.60;;
42704;SDS011;28342;42.594;23.414;2022-12-07T04:57:57;31.25;;;16.00;;
42704;SDS011;28342;42.594;23.414;2022-12-07T05:00:22;32.45;;;16.98;;
42704;SDS011;28342;42.594;23.414;2022-12-07T05:02:48;36.88;;;17.38;;
42704;SDS011;28342;42.594;23.414;2022-12-07T05:05:13;28.98;;;16.23;;
42704;SDS011;28342;42.594;23.414;2022-12-07T05:07:38;30.80;;;15.95;;
42704;SDS011;28342;42.594;23.414;2022-12-07T05:10:04;28.20;;;14.70;;
42704;SDS011;28342;42.594;23.414;2022-12-07T05:12:30;29.13;;;14.30;;
42704;SDS011;28342;42.594;23.414;2022-12-07T05:14:56;27.25;;;14.75;;
42704;SDS011;28342;42.594;23.414;2022-12-07T05:17:21;30.15;;;15.48;;
42704;SDS011;28342;42.594;23.414;2022-12-07T05:19:47;28.55;;;15.70;;
42704;SDS011;28342;42.594;23.414;2022-12-07T05:22:12;30.77;;;15.88;;
42704;SDS011;28342;42.594;23.414;2022-12-07T05:24:38;25.50;;;14.02;;
42704;SDS011;28342;42.594;23.414;2022-12-07T05:27:03;22.77;;;13.40;;
42704;SDS011;28342;42.594;23.414;2022-12-07T05:29:29;28.17;;;13.57;;
42704;SDS011;28342;42.594;23.414;2022-12-07T05:31:54;20.48;;;11.75;;
42704;SDS011;28342;42.594;23.414;2022-12-07T05:34:20;24.98;;;14.13;;
42704;SDS011;28342;42.594;23.414;2022-12-07T05:36:45;25.13;;;12.93;;
42704;SDS011;28342;42.594;23.414;2022-12-07T05:39:11;27.42;;;13.30;;
42704;SDS011;28342;42.594;23.414;2022-12-07T05:41:36;34.88;;;14.13;;
42704;SDS011;28342;42.594;23.414;2022-12-07T05:44:20;30.20;;;15.05;;
42704;SDS011;28342;42.594;23.414;2022-12-07T05:46:45;36.17;;;15.32;;
42704;SDS011;28342;42.594;23.414;2022-12-07T05:49:11;34.67;;;17.90;;
42704;SDS011;28342;42.594;23.414;2022-12-07T05:51:36;28.85;;;15.35;;
42704;SDS011;28342;42.594;23.414;2022-12-07T05:54:02;21.98;;;11.75;;
42704;SDS011;28342;42.594;23.414;2022-12-07T05:56:28;25.42;;;13.93;;
42704;SDS011;28342;42.594;23.414;2022-12-07T05:58:53;26.88;;;14.52;;
42704;SDS011;28342;42.594;23.414;2022-12-07T06:01:38;23.10;;;13.52;;
42704;SDS011;28342;42.594;23.414;2022-12-07T06:04:03;23.17;;;12.00;;
42704;SDS011;28342;42.594;23.414;2022-12-07T06:06:29;22.08;;;12.25;;
42704;SDS011;28342;42.594;23.414;2022-12-07T06:08:54;27.00;;;16.08;;
42704;SDS011;28342;42.594;23.414;2022-12-07T06:11:20;52.22;;;25.65;;
42704;SDS011;28342;42.594;23.414;2022-12-07T06:14:04;23.92;;;12.73;;
42704;SDS011;28342;42.594;23.414;2022-12-07T06:16:29;28.02;;;12.25;;
42704;SDS011;28342;42.594;23.414;2022-12-07T06:18:54;24.80;;;12.05;;
42704;SDS011;28342;42.594;23.414;2022-12-07T06:21:20;24.20;;;12.63;;
42704;SDS011;28342;42.594;23.414;2022-12-07T06:23:45;35.30;;;14.93;;
42704;SDS011;28342;42.594;23.414;2022-12-07T06:26:12;24.85;;;13.20;;
42704;SDS011;28342;42.594;23.414;2022-12-07T06:28:38;33.63;;;17.52;;
42704;SDS011;28342;42.594;23.414;2022-12-07T06:31:03;29.20;;;15.07;;
42704;SDS011;28342;42.594;23.414;2022-12-07T06:33:29;26.63;;;14.32;;
42704;SDS011;28342;42.594;23.414;2022-12-07T06:35:54;25.42;;;15.40;;
42704;SDS011;28342;42.594;23.414;2022-12-07T06:38:20;24.15;;;13.38;;
42704;SDS011;28342;42.594;23.414;2022-12-07T06:40:45;23.98;;;14.30;;
42704;SDS011;28342;42.594;23.414;2022-12-07T06:43:11;24.38;;;13.13;;
42704;SDS011;28342;42.594;23.414;2022-12-07T06:45:37;22.83;;;12.52;;
42704;SDS011;28342;42.594;23.414;2022-12-07T06:48:02;23.20;;;12.48;;
42704;SDS011;28342;42.594;23.414;2022-12-07T06:50:28;22.80;;;11.70;;
42704;SDS011;28342;42.594;23.414;2022-12-07T06:52:53;21.45;;;11.10;;
42704;SDS011;28342;42.594;23.414;2022-12-07T06:55:19;26.63;;;12.23;;
42704;SDS011;28342;42.594;23.414;2022-12-07T06:57:44;34.03;;;15.02;;
42704;SDS011;28342;42.594;23.414;2022-12-07T07:00:10;33.42;;;15.55;;
42704;SDS011;28342;42.594;23.414;2022-12-07T07:02:36;31.27;;;13.52;;
42704;SDS011;28342;42.594;23.414;2022-12-07T07:05:02;37.92;;;18.77;;
42704;SDS011;28342;42.594;23.414;2022-12-07T07:07:28;57.80;;;26.10;;
42704;SDS011;28342;42.594;23.414;2022-12-07T07:09:53;51.75;;;25.92;;
42704;SDS011;28342;42.594;23.414;2022-12-07T07:12:19;53.08;;;26.75;;
42704;SDS011;28342;42.594;23.414;2022-12-07T07:14:44;43.13;;;22.88;;
42704;SDS011;28342;42.594;23.414;2022-12-07T07:17:10;44.47;;;24.42;;
42704;SDS011;28342;42.594;23.414;2022-12-07T07:19:35;45.45;;;23.73;;
42704;SDS011;28342;42.594;23.414;2022-12-07T07:22:02;49.78;;;25.35;;
42704;SDS011;28342;42.594;23.414;2022-12-07T07:24:28;52.40;;;24.77;;
42704;SDS011;28342;42.594;23.414;2022-12-07T07:26:53;44.92;;;24.52;;
42704;SDS011;28342;42.594;23.414;2022-12-07T07:29:18;49.13;;;25.55;;
42704;SDS011;28342;42.594;23.414;2022-12-07T07:31:44;54.00;;;23.65;;
42704;SDS011;28342;42.594;23.414;2022-12-07T07:34:09;44.22;;;22.15;;
42704;SDS011;28342;42.594;23.414;2022-12-07T07:36:35;40.35;;;20.35;;
42704;SDS011;28342;42.594;23.414;2022-12-07T07:39:00;44.85;;;24.60;;
42704;SDS011;28342;42.594;23.414;2022-12-07T07:41:26;55.58;;;27.23;;
42704;SDS011;28342;42.594;23.414;2022-12-07T07:43:51;61.13;;;30.98;;
42704;SDS011;28342;42.594;23.414;2022-12-07T07:46:17;57.13;;;29.52;;
42704;SDS011;28342;42.594;23.414;2022-12-07T07:48:45;62.55;;;30.60;;
42704;SDS011;28342;42.594;23.414;2022-12-07T07:51:10;62.20;;;30.80;;
42704;SDS011;28342;42.594;23.414;2022-12-07T07:53:35;62.33;;;33.72;;
42704;SDS011;28342;42.594;23.414;2022-12-07T07:56:01;61.65;;;32.03;;
42704;SDS011;28342;42.594;23.414;2022-12-07T07:58:27;69.40;;;33.50;;
42704;SDS011;28342;42.594;23.414;2022-12-07T08:00:52;62.03;;;31.70;;
42704;SDS011;28342;42.594;23.414;2022-12-07T08:03:18;61.88;;;29.67;;
42704;SDS011;28342;42.594;23.414;2022-12-07T08:05:43;54.35;;;29.88;;
42704;SDS011;28342;42.594;23.414;2022-12-07T08:08:09;57.40;;;28.70;;
42704;SDS011;28342;42.594;23.414;2022-12-07T08:10:34;56.28;;;29.63;;
42704;SDS011;28342;42.594;23.414;2022-12-07T08:13:00;55.03;;;29.45;;
42704;SDS011;28342;42.594;23.414;2022-12-07T08:15:42;55.58;;;27.55;;
42704;SDS011;28342;42.594;23.414;2022-12-07T08:18:09;63.53;;;30.77;;
42704;SDS011;28342;42.594;23.414;2022-12-07T08:20:36;58.30;;;30.38;;
42704;SDS011;28342;42.594;23.414;2022-12-07T08:23:02;52.13;;;27.20;;
42704;SDS011;28342;42.594;23.414;2022-12-07T08:25:29;47.10;;;23.52;;
42704;SDS011;28342;42.594;23.414;2022-12-07T08:27:54;53.03;;;25.58;;
42704;SDS011;28342;42.594;23.414;2022-12-07T08:30:28;46.63;;;23.52;;
42704;SDS011;28342;42.594;23.414;2022-12-07T08:32:54;41.42;;;22.60;;
42704;SDS011;28342;42.594;23.414;2022-12-07T08:35:20;41.72;;;22.23;;
42704;SDS011;28342;42.594;23.414;2022-12-07T08:37:46;42.17;;;20.73;;
42704;SDS011;28342;42.594;23.414;2022-12-07T08:40:12;39.50;;;22.55;;
42704;SDS011;28342;42.594;23.414;2022-12-07T08:42:43;46.92;;;21.92;;
42704;SDS011;28342;42.594;23.414;2022-12-07T08:45:13;42.30;;;23.35;;
42704;SDS011;28342;42.594;23.414;2022-12-07T08:47:48;44.90;;;22.92;;
42704;SDS011;28342;42.594;23.414;2022-12-07T08:50:18;48.70;;;22.75;;
42704;SDS011;28342;42.594;23.414;2022-12-07T08:52:44;56.47;;;25.70;;
42704;SDS011;28342;42.594;23.414;2022-12-07T08:55:12;48.60;;;24.80;;
42704;SDS011;28342;42.594;23.414;2022-12-07T08:57:38;54.60;;;27.95;;
42704;SDS011;28342;42.594;23.414;2022-12-07T09:00:05;54.38;;;28.50;;
42704;SDS011;28342;42.594;23.414;2022-12-07T09:02:31;55.33;;;28.48;;
42704;SDS011;28342;42.594;23.414;2022-12-07T09:04:57;56.25;;;29.13;;
42704;SDS011;28342;42.594;23.414;2022-12-07T09:07:22;62.35;;;30.45;;
42704;SDS011;28342;42.594;23.414;2022-12-07T09:09:49;58.10;;;28.95;;
42704;SDS011;28342;42.594;23.414;2022-12-07T09:12:14;59.97;;;29.40;;
42704;SDS011;28342;42.594;23.414;2022-12-07T09:14:39;60.60;;;29.40;;
42704;SDS011;28342;42.594;23.414;2022-12-07T09:17:09;62.20;;;30.50;;
42704;SDS011;28342;42.594;23.414;2022-12-07T09:19:35;63.50;;;31.25;;
42704;SDS011;28342;42.594;23.414;2022-12-07T09:22:01;58.55;;;31.38;;
42704;SDS011;28342;42.594;23.414;2022-12-07T09:24:27;57.97;;;31.88;;
42704;SDS011;28342;42.594;23.414;2022-12-07T09:26:53;54.72;;;29.08;;
42704;SDS011;28342;42.594;23.414;2022-12-07T09:29:18;52.92;;;27.33;;
42704;SDS011;28342;42.594;23.414;2022-12-07T09:31:43;54.28;;;27.52;;
42704;SDS011;28342;42.594;23.414;2022-12-07T09:34:09;57.80;;;29.05;;
42704;SDS011;28342;42.594;23.414;2022-12-07T09:36:34;54.78;;;29.60;;
42704;SDS011;28342;42.594;23.414;2022-12-07T09:39:00;51.10;;;28.23;;
42704;SDS011;28342;42.594;23.414;2022-12-07T09:41:26;55.50;;;27.25;;
42704;SDS011;28342;42.594;23.414;2022-12-07T09:43:52;52.63;;;27.70;;
42704;SDS011;28342;42.594;23.414;2022-12-07T09:46:23;58.00;;;29.30;;
42704;SDS011;28342;42.594;23.414;2022-12-07T09:48:49;57.33;;;29.45;;
42704;SDS011;28342;42.594;23.414;2022-12-07T09:51:19;56.47;;;27.55;;
42704;SDS011;28342;42.594;23.414;2022-12-07T09:53:47;53.97;;;28.15;;
42704;SDS011;28342;42.594;23.414;2022-12-07T09:56:14;56.75;;;30.10;;
42704;SDS011;28342;42.594;23.414;2022-12-07T09:58:41;55.53;;;29.83;;
42704;SDS011;28342;42.594;23.414;2022-12-07T10:03:33;52.78;;;27.35;;
42704;SDS011;28342;42.594;23.414;2022-12-07T10:06:02;50.58;;;27.52;;
42704;SDS011;28342;42.594;23.414;2022-12-07T10:08:28;59.22;;;28.98;;
42704;SDS011;28342;42.594;23.414;2022-12-07T10:10:55;58.28;;;30.23;;
42704;SDS011;28342;42.594;23.414;2022-12-07T10:13:34;77.25;;;35.53;;
42704;SDS011;28342;42.594;23.414;2022-12-07T10:16:01;58.55;;;28.90;;
42704;SDS011;28342;42.594;23.414;2022-12-07T10:18:37;59.47;;;28.23;;
42704;SDS011;28342;42.594;23.414;2022-12-07T10:29:02;54.88;;;28.80;;
42704;SDS011;28342;42.594;23.414;2022-12-07T10:31:40;54.97;;;27.08;;
42704;SDS011;28342;42.594;23.414;2022-12-07T10:34:14;63.13;;;29.45;;
42704;SDS011;28342;42.594;23.414;2022-12-07T10:36:47;49.80;;;27.13;;
42704;SDS011;28342;42.594;23.414;2022-12-07T10:39:13;48.22;;;24.52;;
42704;SDS011;28342;42.594;23.414;2022-12-07T10:44:26;43.50;;;25.45;;
42704;SDS011;28342;42.594;23.414;2022-12-07T10:46:57;43.60;;;24.80;;
42704;SDS011;28342;42.594;23.414;2022-12-07T10:52:34;50.97;;;24.63;;
42704;SDS011;28342;42.594;23.414;2022-12-07T10:55:12;45.92;;;24.70;;
42704;SDS011;28342;42.594;23.414;2022-12-07T11:16:44;48.53;;;22.02;;
42704;SDS011;28342;42.594;23.414;2022-12-07T11:21:58;47.28;;;24.23;;
42704;SDS011;28342;42.594;23.414;2022-12-07T11:24:41;49.57;;;26.27;;
42704;SDS011;28342;42.594;23.414;2022-12-07T11:27:36;51.72;;;26.58;;
42704;SDS011;28342;42.594;23.414;2022-12-07T11:30:19;43.17;;;24.77;;
42704;SDS011;28342;42.594;23.414;2022-12-07T11:38:21;41.42;;;23.25;;
42704;SDS011;28342;42.594;23.414;2022-12-07T11:41:03;50.92;;;25.05;;
42704;SDS011;28342;42.594;23.414;2022-12-07T11:43:59;53.55;;;24.50;;
42704;SDS011;28342;42.594;23.414;2022-12-07T11:46:48;50.70;;;23.50;;
42704;SDS011;28342;42.594;23.414;2022-12-07T11:49:21;45.10;;;24.30;;
42704;SDS011;28342;42.594;23.414;2022-12-07T11:51:53;45.92;;;24.60;;
42704;SDS011;28342;42.594;23.414;2022-12-07T11:54:26;44.75;;;23.63;;
42704;SDS011;28342;42.594;23.414;2022-12-07T11:56:57;55.33;;;24.35;;
42704;SDS011;28342;42.594;23.414;2022-12-07T12:02:14;42.33;;;22.00;;
42704;SDS011;28342;42.594;23.414;2022-12-07T12:07:35;36.90;;;18.05;;
42704;SDS011;28342;42.594;23.414;2022-12-07T12:10:04;44.97;;;21.52;;
42704;SDS011;28342;42.594;23.414;2022-12-07T12:21:21;44.75;;;23.25;;
42704;SDS011;28342;42.594;23.414;2022-12-07T12:23:43;41.92;;;22.90;;
42704;SDS011;28342;42.594;23.414;2022-12-07T12:26:23;48.20;;;22.63;;
42704;SDS011;28342;42.594;23.414;2022-12-07T12:28:55;56.70;;;23.38;;
42704;SDS011;28342;42.594;23.414;2022-12-07T12:33:59;41.03;;;21.55;;
42704;SDS011;28342;42.594;23.414;2022-12-07T12:39:14;35.28;;;19.95;;
42704;SDS011;28342;42.594;23.414;2022-12-07T12:46:56;58.35;;;26.55;;
42704;SDS011;28342;42.594;23.414;2022-12-07T12:49:33;53.47;;;27.80;;
42704;SDS011;28342;42.594;23.414;2022-12-07T12:54:57;53.58;;;27.85;;
42704;SDS011;28342;42.594;23.414;2022-12-07T12:57:31;55.17;;;28.65;;
42704;SDS011;28342;42.594;23.414;2022-12-07T13:00:02;58.25;;;27.48;;
42704;SDS011;28342;42.594;23.414;2022-12-07T13:02:47;69.57;;;31.13;;
42704;SDS011;28342;42.594;23.414;2022-12-07T13:20:49;90.75;;;38.38;;
42704;SDS011;28342;42.594;23.414;2022-12-07T13:23:25;55.25;;;29.27;;
42704;SDS011;28342;42.594;23.414;2022-12-07T13:28:22;63.03;;;30.17;;
42704;SDS011;28342;42.594;23.414;2022-12-07T13:31:00;57.05;;;25.85;;
42704;SDS011;28342;42.594;23.414;2022-12-07T13:33:35;56.92;;;27.98;;
42704;SDS011;28342;42.594;23.414;2022-12-07T13:36:01;53.33;;;25.55;;
42704;SDS011;28342;42.594;23.414;2022-12-07T13:38:28;58.80;;;28.08;;
42704;SDS011;28342;42.594;23.414;2022-12-07T13:43:52;56.15;;;27.17;;
42704;SDS011;28342;42.594;23.414;2022-12-07T13:48:56;50.80;;;26.42;;
42704;SDS011;28342;42.594;23.414;2022-12-07T13:51:23;59.45;;;30.10;;
42704;SDS011;28342;42.594;23.414;2022-12-07T13:53:54;55.20;;;28.05;;
42704;SDS011;28342;42.594;23.414;2022-12-07T13:56:31;55.33;;;28.92;;
42704;SDS011;28342;42.594;23.414;2022-12-07T13:58:59;62.10;;;29.10;;
42704;SDS011;28342;42.594;23.414;2022-12-07T14:01:24;56.70;;;28.70;;
42704;SDS011;28342;42.594;23.414;2022-12-07T14:03:50;104.00;;;30.13;;
42704;SDS011;28342;42.594;23.414;2022-12-07T14:06:22;169.80;;;35.67;;
42704;SDS011;28342;42.594;23.414;2022-12-07T14:09:06;161.52;;;35.83;;
42704;SDS011;28342;42.594;23.414;2022-12-07T14:11:33;185.15;;;31.60;;
42704;SDS011;28342;42.594;23.414;2022-12-07T14:13:59;136.82;;;33.55;;
42704;SDS011;28342;42.594;23.414;2022-12-07T14:18:57;94.55;;;32.78;;
42704;SDS011;28342;42.594;23.414;2022-12-07T14:21:26;87.47;;;30.58;;
42704;SDS011;28342;42.594;23.414;2022-12-07T14:26:41;84.65;;;38.25;;
42704;SDS011;28342;42.594;23.414;2022-12-07T14:31:51;74.65;;;39.05;;
42704;SDS011;28342;42.594;23.414;2022-12-07T14:34:19;76.40;;;39.85;;
42704;SDS011;28342;42.594;23.414;2022-12-07T14:36:48;77.22;;;36.35;;
42704;SDS011;28342;42.594;23.414;2022-12-07T14:39:14;71.70;;;37.38;;
42704;SDS011;28342;42.594;23.414;2022-12-07T14:41:40;79.95;;;38.58;;
42704;SDS011;28342;42.594;23.414;2022-12-07T14:44:18;71.22;;;37.15;;
42704;SDS011;28342;42.594;23.414;2022-12-07T14:46:45;68.45;;;34.35;;
42704;SDS011;28342;42.594;23.414;2022-12-07T14:49:11;96.38;;;46.78;;
42704;SDS011;28342;42.594;23.414;2022-12-07T14:51:38;93.45;;;48.83;;
42704;SDS011;28342;42.594;23.414;2022-12-07T14:54:05;94.20;;;47.00;;
42704;SDS011;28342;42.594;23.414;2022-12-07T14:56:36;93.10;;;45.80;;
42704;SDS011;28342;42.594;23.414;2022-12-07T14:59:02;184.32;;;74.45;;
42704;SDS011;28342;42.594;23.414;2022-12-07T15:01:27;98.60;;;48.03;;
42704;SDS011;28342;42.594;23.414;2022-12-07T15:03:53;103.80;;;49.47;;
42704;SDS011;28342;42.594;23.414;2022-12-07T15:06:18;81.13;;;40.92;;
42704;SDS011;28342;42.594;23.414;2022-12-07T15:08:44;73.47;;;41.40;;
42704;SDS011;28342;42.594;23.414;2022-12-07T15:11:16;82.18;;;40.83;;
42704;SDS011;28342;42.594;23.414;2022-12-07T15:13:43;74.95;;;38.67;;
42704;SDS011;28342;42.594;23.414;2022-12-07T15:16:27;74.20;;;32.65;;
42704;SDS011;28342;42.594;23.414;2022-12-07T15:18:52;62.83;;;31.70;;
42704;SDS011;28342;42.594;23.414;2022-12-07T15:21:17;46.63;;;22.77;;
42704;SDS011;28342;42.594;23.414;2022-12-07T15:23:43;61.95;;;29.83;;
42704;SDS011;28342;42.594;23.414;2022-12-07T15:26:11;62.80;;;30.52;;
42704;SDS011;28342;42.594;23.414;2022-12-07T15:28:37;67.07;;;33.15;;
42704;SDS011;28342;42.594;23.414;2022-12-07T15:31:03;70.85;;;38.53;;
42704;SDS011;28342;42.594;23.414;2022-12-07T15:33:28;85.32;;;40.40;;
42704;SDS011;28342;42.594;23.414;2022-12-07T15:35:54;77.95;;;40.75;;
42704;SDS011;28342;42.594;23.414;2022-12-07T15:38:19;84.07;;;44.33;;
42704;SDS011;28342;42.594;23.414;2022-12-07T15:40:48;86.07;;;45.35;;
42704;SDS011;28342;42.594;23.414;2022-12-07T15:43:13;83.18;;;44.95;;
42704;SDS011;28342;42.594;23.414;2022-12-07T15:45:58;82.38;;;40.85;;
42704;SDS011;28342;42.594;23.414;2022-12-07T15:48:24;83.10;;;40.83;;
42704;SDS011;28342;42.594;23.414;2022-12-07T15:50:50;99.15;;;46.05;;
42704;SDS011;28342;42.594;23.414;2022-12-07T15:53:15;82.55;;;41.88;;
42704;SDS011;28342;42.594;23.414;2022-12-07T15:55:40;76.30;;;38.35;;
42704;SDS011;28342;42.594;23.414;2022-12-07T15:58:06;99.47;;;49.03;;
42704;SDS011;28342;42.594;23.414;2022-12-07T16:00:32;95.60;;;43.00;;
42704;SDS011;28342;42.594;23.414;2022-12-07T16:02:58;98.57;;;48.80;;
42704;SDS011;28342;42.594;23.414;2022-12-07T16:05:23;94.00;;;51.92;;
42704;SDS011;28342;42.594;23.414;2022-12-07T16:07:49;58.60;;;35.78;;
42704;SDS011;28342;42.594;23.414;2022-12-07T16:10:14;83.68;;;44.88;;
42704;SDS011;28342;42.594;23.414;2022-12-07T16:12:40;85.88;;;47.35;;
42704;SDS011;28342;42.594;23.414;2022-12-07T16:15:05;86.40;;;47.30;;
42704;SDS011;28342;42.594;23.414;2022-12-07T16:17:31;88.22;;;46.22;;
42704;SDS011;28342;42.594;23.414;2022-12-07T16:19:57;81.20;;;48.47;;
42704;SDS011;28342;42.594;23.414;2022-12-07T16:22:23;77.93;;;44.67;;
42704;SDS011;28342;42.594;23.414;2022-12-07T16:24:48;76.68;;;41.28;;
42704;SDS011;28342;42.594;23.414;2022-12-07T16:27:14;74.68;;;40.63;;
42704;SDS011;28342;42.594;23.414;2022-12-07T16:29:39;71.55;;;39.22;;
42704;SDS011;28342;42.594;23.414;2022-12-07T16:32:05;79.35;;;41.88;;
42704;SDS011;28342;42.594;23.414;2022-12-07T16:34:30;78.15;;;41.45;;
42704;SDS011;28342;42.594;23.414;2022-12-07T16:36:56;74.93;;;42.67;;